createdAt,value
2023-07-24T00:00:50.541Z,69.35
2023-07-24T00:03:31.760Z,69.42
2023-07-24T00:06:00.650Z,69.31
2023-07-24T00:08:28.683Z,69.48
2023-07-24T00:10:56.662Z,69.71
2023-07-24T00:13:24.749Z,69.62
2023-07-24T00:15:52.565Z,69.77
2023-07-24T00:18:20.568Z,69.80
2023-07-24T00:20:48.578Z,69.85
2023-07-24T00:23:16.477Z,69.69
2023-07-24T00:25:44.302Z,69.61
2023-07-24T00:28:12.131Z,69.53
2023-07-24T00:30:40.249Z,69.48
2023-07-24T00:33:08.102Z,69.37
2023-07-24T00:35:36.043Z,69.12
2023-07-24T00:38:04.218Z,69.02
2023-07-24T00:40:32.127Z,68.83
2023-07-24T00:43:00.366Z,68.74
2023-07-24T00:45:30.073Z,68.40
2023-07-24T00:47:58.222Z,68.41
2023-07-24T00:50:26.416Z,68.41
2023-07-24T00:52:55.108Z,68.49
2023-07-24T00:55:23.052Z,68.25
2023-07-24T00:57:51.081Z,68.08
2023-07-24T01:00:19.215Z,68.13
2023-07-24T01:02:49.252Z,68.13
2023-07-24T01:05:17.809Z,68.78
2023-07-24T01:07:45.855Z,69.16
2023-07-24T01:10:13.709Z,68.87
2023-07-24T01:12:41.446Z,68.70
2023-07-24T01:15:26.393Z,68.91
2023-07-24T01:18:01.816Z,69.26
2023-07-24T01:20:30.824Z,69.58
2023-07-24T01:23:16.145Z,69.83
2023-07-24T01:26:00.556Z,70.08
2023-07-24T01:28:28.633Z,70.21
2023-07-24T01:30:57.531Z,70.42
2023-07-24T01:33:26.215Z,70.62
2023-07-24T01:35:58.788Z,70.53
2023-07-24T01:38:27.177Z,70.32
2023-07-24T01:40:55.741Z,70.44
2023-07-24T01:43:24.333Z,70.65
2023-07-24T01:45:52.347Z,70.99
2023-07-24T01:48:20.190Z,71.17
2023-07-24T01:50:49.163Z,71.54
2023-07-24T01:53:17.250Z,71.69
2023-07-24T01:55:45.207Z,71.88
2023-07-24T01:58:13.272Z,72.16
2023-07-24T02:00:41.247Z,72.21
2023-07-24T02:03:09.079Z,72.60
2023-07-24T02:05:37.202Z,72.48
2023-07-24T02:08:05.669Z,72.62
2023-07-24T02:10:33.807Z,72.66
2023-07-24T02:13:01.802Z,72.73
2023-07-24T02:15:29.714Z,72.71
2023-07-24T02:17:57.673Z,72.45
2023-07-24T02:20:25.661Z,72.48
2023-07-24T02:22:53.685Z,72.64
2023-07-24T02:25:21.544Z,72.53
2023-07-24T02:27:49.425Z,72.23
2023-07-24T02:30:17.387Z,72.34
2023-07-24T02:32:45.204Z,72.02
2023-07-24T02:35:13.112Z,72.18
2023-07-24T02:37:40.975Z,72.20
2023-07-24T02:40:13.280Z,72.17
2023-07-24T02:42:41.228Z,72.27
2023-07-24T02:45:12.296Z,72.34
2023-07-24T02:47:40.332Z,72.24
2023-07-24T02:50:08.642Z,72.38
2023-07-24T02:52:36.533Z,72.67
2023-07-24T02:55:04.961Z,72.45
2023-07-24T02:57:33.244Z,71.85
2023-07-24T03:00:01.203Z,71.94
2023-07-24T03:02:29.404Z,71.83
2023-07-24T03:04:57.408Z,71.30
2023-07-24T03:07:25.237Z,71.33
2023-07-24T03:09:53.048Z,71.20
2023-07-24T03:12:20.828Z,71.11
2023-07-24T03:14:49.132Z,71.07
2023-07-24T03:17:16.991Z,70.98
2023-07-24T03:19:44.867Z,71.39
2023-07-24T03:22:12.755Z,71.44
2023-07-24T03:24:40.809Z,71.14
2023-07-24T03:27:08.876Z,71.15
2023-07-24T03:29:38.463Z,71.17
2023-07-24T03:32:06.766Z,71.46
2023-07-24T03:34:34.826Z,71.35
2023-07-24T03:37:03.305Z,71.29
2023-07-24T03:39:32.614Z,71.29
2023-07-24T03:42:00.474Z,71.46
2023-07-24T03:44:28.457Z,71.82
2023-07-24T03:46:56.494Z,71.80
2023-07-24T03:49:24.605Z,71.73
2023-07-24T03:51:52.562Z,71.62
2023-07-24T03:54:20.424Z,71.65
2023-07-24T03:56:48.292Z,71.53
2023-07-24T03:59:16.372Z,71.57
2023-07-24T04:01:44.439Z,72.09
2023-07-24T04:04:12.269Z,72.00
2023-07-24T04:06:40.245Z,71.89
2023-07-24T04:09:08.103Z,72.15
2023-07-24T04:11:39.437Z,72.31
2023-07-24T04:14:07.585Z,72.71
2023-07-24T04:16:35.991Z,73.19
2023-07-24T04:19:04.422Z,73.39
2023-07-24T04:21:32.510Z,73.18
2023-07-24T04:24:00.581Z,72.96
2023-07-24T04:26:28.808Z,72.86
2023-07-24T04:28:57.039Z,72.86
2023-07-24T04:31:25.122Z,72.97
2023-07-24T04:33:53.135Z,73.07
2023-07-24T04:36:20.921Z,73.05
2023-07-24T04:38:48.766Z,72.69
2023-07-24T04:41:17.165Z,72.84
2023-07-24T04:43:45.154Z,72.66
2023-07-24T04:46:13.002Z,72.68
2023-07-24T04:48:41.184Z,72.42
2023-07-24T04:51:09.066Z,72.13
2023-07-24T04:53:37.007Z,72.02
2023-07-24T04:56:05.031Z,71.78
2023-07-24T04:58:33.063Z,71.97
2023-07-24T05:01:03.821Z,72.35
2023-07-24T05:03:32.319Z,72.71
2023-07-24T05:06:00.234Z,72.63
2023-07-24T05:08:28.033Z,72.28
2023-07-24T05:10:59.936Z,71.78
2023-07-24T05:13:28.151Z,71.13
2023-07-24T05:15:55.922Z,70.63
2023-07-24T05:18:23.764Z,70.56
2023-07-24T05:20:52.726Z,70.80
2023-07-24T05:23:20.715Z,70.41
2023-07-24T05:25:48.698Z,69.79
2023-07-24T05:28:16.547Z,70.33
2023-07-24T05:30:44.492Z,70.75
2023-07-24T05:33:12.718Z,71.33
2023-07-24T05:35:40.704Z,71.04
2023-07-24T05:38:08.750Z,71.29
2023-07-24T05:40:36.830Z,71.56
2023-07-24T05:43:05.185Z,71.64
2023-07-24T05:45:33.069Z,71.70
2023-07-24T05:48:01.087Z,71.59
2023-07-24T05:50:29.012Z,70.78
2023-07-24T05:52:56.910Z,71.07
2023-07-24T05:55:24.998Z,71.27
2023-07-24T05:57:53.136Z,71.35
2023-07-24T06:00:20.964Z,71.47
2023-07-24T06:02:49.053Z,70.96
2023-07-24T06:05:17.656Z,71.00
2023-07-24T06:07:45.636Z,71.52
2023-07-24T06:10:13.842Z,70.88
2023-07-24T06:12:41.763Z,70.48
2023-07-24T06:15:10.213Z,69.17
2023-07-24T06:17:38.167Z,69.94
2023-07-24T06:20:07.427Z,70.12
2023-07-24T06:22:35.236Z,69.71
2023-07-24T06:25:03.045Z,69.18
2023-07-24T06:27:31.074Z,69.14
2023-07-24T06:30:13.068Z,69.54
2023-07-24T06:32:43.684Z,69.03
2023-07-24T06:35:11.924Z,69.37
2023-07-24T06:37:39.891Z,68.77
2023-07-24T06:40:08.403Z,68.41
2023-07-24T06:42:37.465Z,69.09
2023-07-24T06:45:08.418Z,69.39
2023-07-24T06:47:37.038Z,68.80
2023-07-24T06:50:06.010Z,68.97
2023-07-24T06:52:34.310Z,68.69
2023-07-24T06:55:02.362Z,68.51
2023-07-24T06:57:30.261Z,68.50
2023-07-24T06:59:58.286Z,68.33
2023-07-24T07:02:26.590Z,67.97
2023-07-24T07:04:54.665Z,68.17
2023-07-24T07:07:22.602Z,67.84
2023-07-24T07:09:50.664Z,67.56
2023-07-24T07:12:19.946Z,67.46
2023-07-24T07:14:49.990Z,67.19
2023-07-24T07:17:18.076Z,67.01
2023-07-24T07:19:45.952Z,66.73
2023-07-24T07:22:13.908Z,66.44
2023-07-24T07:24:42.013Z,66.45
2023-07-24T07:27:10.094Z,66.63
2023-07-24T07:29:38.218Z,66.48
2023-07-24T07:32:06.432Z,66.35
2023-07-24T07:34:35.961Z,66.21
2023-07-24T07:37:03.899Z,66.01
2023-07-24T07:39:31.702Z,66.09
2023-07-24T07:42:12.281Z,66.14
2023-07-24T07:44:44.083Z,65.66
2023-07-24T07:47:12.275Z,65.71
2023-07-24T07:49:44.214Z,65.93
2023-07-24T07:52:12.353Z,65.94
2023-07-24T07:54:40.288Z,65.61
2023-07-24T07:57:08.122Z,65.74
2023-07-24T07:59:36.463Z,65.59
2023-07-24T08:02:04.618Z,65.78
2023-07-24T08:04:32.924Z,65.58
2023-07-24T08:07:01.015Z,65.11
2023-07-24T08:09:29.472Z,64.92
2023-07-24T08:11:57.447Z,64.85
2023-07-24T08:14:25.521Z,64.69
2023-07-24T08:16:54.708Z,63.45
2023-07-24T08:19:22.904Z,62.01
2023-07-24T08:21:50.733Z,61.69
2023-07-24T08:24:18.627Z,62.14
2023-07-24T08:26:46.690Z,61.71
2023-07-24T08:29:14.761Z,61.08
2023-07-24T08:31:42.757Z,61.23
2023-07-24T08:34:11.010Z,61.82
2023-07-24T08:36:38.976Z,61.85
2023-07-24T08:39:07.256Z,61.60
2023-07-24T08:41:36.447Z,60.54
2023-07-24T08:44:09.026Z,59.90
2023-07-24T08:46:38.598Z,60.83
2023-07-24T08:49:07.272Z,61.27
2023-07-24T08:51:36.541Z,61.20
2023-07-24T08:54:05.629Z,60.94
2023-07-24T08:56:33.594Z,60.86
2023-07-24T08:59:01.664Z,61.09
2023-07-24T09:01:29.489Z,60.54
2023-07-24T09:03:57.563Z,60.54
2023-07-24T09:06:27.587Z,58.39
2023-07-24T09:08:56.110Z,58.32
2023-07-24T09:11:24.180Z,58.70
2023-07-24T09:13:55.399Z,58.19
2023-07-24T09:16:25.309Z,57.29
2023-07-24T09:21:29.767Z,55.83
2023-07-24T09:23:58.745Z,52.45
2023-07-24T09:26:27.007Z,52.54
2023-07-24T09:28:55.625Z,50.18
2023-07-24T09:31:34.760Z,48.80
2023-07-24T09:34:03.570Z,50.32
2023-07-24T09:36:40.928Z,51.43
2023-07-24T09:39:11.971Z,50.99
2023-07-24T09:41:41.522Z,52.01
2023-07-24T09:44:13.072Z,49.72
2023-07-24T09:49:13.523Z,49.33
2023-07-24T09:51:45.846Z,51.05
2023-07-24T09:54:21.482Z,51.43
2023-07-24T09:56:55.577Z,49.15
2023-07-24T09:59:31.873Z,49.61
2023-07-24T10:02:00.225Z,50.61
2023-07-24T10:04:28.897Z,50.79
2023-07-24T10:06:57.256Z,47.57
2023-07-24T10:09:28.298Z,46.98
2023-07-24T10:11:58.944Z,46.78
2023-07-24T10:14:26.975Z,45.38
2023-07-24T10:16:57.413Z,45.03
2023-07-24T10:19:25.464Z,44.41
2023-07-24T10:21:53.440Z,46.46
2023-07-24T10:24:40.155Z,46.88
2023-07-24T10:27:09.897Z,45.52
2023-07-24T10:29:38.300Z,47.47
2023-07-24T10:32:18.651Z,48.73
2023-07-24T10:34:47.077Z,46.55
2023-07-24T10:37:15.141Z,45.20
2023-07-24T10:39:43.112Z,45.71
2023-07-24T10:42:12.021Z,45.48
2023-07-24T10:44:40.240Z,45.84
2023-07-24T10:47:08.258Z,45.76
2023-07-24T10:49:36.735Z,44.13
2023-07-24T10:52:05.027Z,44.40
2023-07-24T10:54:33.085Z,41.06
2023-07-24T10:57:04.241Z,41.52
2023-07-24T10:59:38.873Z,41.39
2023-07-24T11:02:08.101Z,41.58
2023-07-24T11:04:36.370Z,41.41
2023-07-24T11:07:04.573Z,41.71
2023-07-24T11:09:41.392Z,43.50
2023-07-24T11:12:12.757Z,40.96
2023-07-24T11:14:47.351Z,40.27
2023-07-24T11:17:15.525Z,37.92
2023-07-24T11:19:43.534Z,36.94
2023-07-24T11:22:11.569Z,37.70
2023-07-24T11:24:47.131Z,38.52
2023-07-24T11:27:16.307Z,37.92
2023-07-24T11:29:51.169Z,38.92
2023-07-24T11:32:22.391Z,40.09
2023-07-24T11:34:51.405Z,39.59
2023-07-24T11:37:20.085Z,39.91
2023-07-24T11:39:58.043Z,39.43
2023-07-24T11:42:28.858Z,39.80
2023-07-24T11:44:56.892Z,40.16
2023-07-24T11:47:24.813Z,40.40
2023-07-24T11:50:00.085Z,40.20
2023-07-24T11:52:39.311Z,39.67
2023-07-24T11:55:07.710Z,39.13
2023-07-24T11:57:35.667Z,39.30
2023-07-24T12:00:04.906Z,40.08
2023-07-24T12:02:35.980Z,40.02
2023-07-24T12:05:05.774Z,38.44
2023-07-24T12:07:35.026Z,38.10
2023-07-24T12:10:04.088Z,37.04
2023-07-24T12:12:38.768Z,38.24
2023-07-24T12:15:07.220Z,38.32
2023-07-24T12:17:35.447Z,37.77
2023-07-24T12:20:05.438Z,37.09
2023-07-24T12:22:34.162Z,37.63
2023-07-24T12:25:02.854Z,37.32
2023-07-24T12:27:31.022Z,36.52
2023-07-24T12:29:59.099Z,37.43
2023-07-24T12:32:27.187Z,37.03
2023-07-24T12:34:55.302Z,38.39
2023-07-24T12:37:23.446Z,38.57
2023-07-24T12:39:51.319Z,37.80
2023-07-24T12:42:19.201Z,38.23
2023-07-24T12:44:47.075Z,38.71
2023-07-24T12:47:15.142Z,38.48
2023-07-24T12:49:42.995Z,38.66
2023-07-24T12:52:11.711Z,38.18
2023-07-24T12:54:59.103Z,38.55
2023-07-24T12:57:27.828Z,37.40
2023-07-24T12:59:55.938Z,38.32
2023-07-24T13:02:23.992Z,36.46
2023-07-24T13:04:52.032Z,35.64
2023-07-24T13:07:19.936Z,34.87
2023-07-24T13:09:47.883Z,35.87
2023-07-24T13:12:15.716Z,36.49
2023-07-24T13:14:43.692Z,35.49
2023-07-24T13:17:11.746Z,36.12
2023-07-24T13:19:39.569Z,35.73
2023-07-24T13:22:07.671Z,34.94
2023-07-24T13:24:35.504Z,34.26
2023-07-24T13:27:03.517Z,35.29
2023-07-24T13:29:32.102Z,36.98
2023-07-24T13:32:00.073Z,36.48
2023-07-24T13:34:27.946Z,36.99
2023-07-24T13:36:56.031Z,37.05
2023-07-24T13:39:23.981Z,37.14
2023-07-24T13:41:51.950Z,35.95
2023-07-24T13:44:19.886Z,36.42
2023-07-24T13:46:47.932Z,35.80
2023-07-24T13:49:15.825Z,36.35
2023-07-24T13:51:43.948Z,36.58
2023-07-24T13:54:11.840Z,35.77
2023-07-24T13:56:39.810Z,35.30
2023-07-24T13:59:07.849Z,35.77
2023-07-24T14:01:36.190Z,35.35
2023-07-24T14:04:04.926Z,34.92
2023-07-24T14:06:32.963Z,35.22
2023-07-24T14:09:01.068Z,35.39
2023-07-24T14:11:30.677Z,34.47
2023-07-24T14:13:59.243Z,33.92
2023-07-24T14:16:27.262Z,34.45
2023-07-24T14:18:55.184Z,34.86
2023-07-24T14:21:23.055Z,34.90
2023-07-24T14:23:50.950Z,34.84
2023-07-24T14:26:19.117Z,36.08
2023-07-24T14:28:47.166Z,35.57
2023-07-24T14:31:15.040Z,34.94
2023-07-24T14:33:43.217Z,35.01
2023-07-24T14:36:11.126Z,36.28
2023-07-24T14:38:38.970Z,35.68
2023-07-24T14:41:07.132Z,34.95
2023-07-24T14:43:35.013Z,35.60
2023-07-24T14:46:02.886Z,33.58
2023-07-24T14:48:32.776Z,31.98
2023-07-24T14:51:02.371Z,32.86
2023-07-24T14:53:30.257Z,33.83
2023-07-24T14:55:58.443Z,34.86
2023-07-24T14:58:26.307Z,34.99
2023-07-24T15:00:54.231Z,34.74
2023-07-24T15:03:22.586Z,33.85
2023-07-24T15:05:50.708Z,32.88
2023-07-24T15:08:18.974Z,33.00
2023-07-24T15:10:46.804Z,32.83
2023-07-24T15:13:14.642Z,33.20
2023-07-24T15:15:42.814Z,33.47
2023-07-24T15:18:10.754Z,33.73
2023-07-24T15:20:39.023Z,33.37
2023-07-24T15:23:08.398Z,34.02
2023-07-24T15:25:38.079Z,35.23
2023-07-24T15:28:05.978Z,34.73
2023-07-24T15:30:34.186Z,34.68
2023-07-24T15:33:01.996Z,34.69
2023-07-24T15:35:30.016Z,34.89
2023-07-24T15:37:58.065Z,34.83
2023-07-24T15:40:26.103Z,35.33
2023-07-24T15:42:54.130Z,35.31
2023-07-24T15:45:22.024Z,35.33
2023-07-24T15:47:50.038Z,34.97
2023-07-24T15:50:17.976Z,34.89
2023-07-24T15:52:45.919Z,35.74
2023-07-24T15:55:13.868Z,35.66
2023-07-24T15:57:41.668Z,36.63
2023-07-24T16:00:10.324Z,36.38
2023-07-24T16:02:41.569Z,36.95
2023-07-24T16:05:17.962Z,37.57
2023-07-24T16:07:47.212Z,35.92
2023-07-24T16:10:15.705Z,36.96
2023-07-24T16:12:43.988Z,38.16
2023-07-24T16:15:12.230Z,37.79
2023-07-24T16:20:28.676Z,40.63
2023-07-24T16:22:56.870Z,41.00
2023-07-24T16:25:25.022Z,40.56
2023-07-24T16:27:52.880Z,42.34
2023-07-24T16:30:22.183Z,43.80
2023-07-24T16:32:50.875Z,44.41
2023-07-24T16:35:19.086Z,43.94
2023-07-24T16:37:48.888Z,43.53
2023-07-24T16:40:17.785Z,43.10
2023-07-24T16:42:46.677Z,42.92
2023-07-24T16:45:29.450Z,43.79
2023-07-24T16:48:03.653Z,44.38
2023-07-24T16:50:33.231Z,44.36
2023-07-24T16:53:01.266Z,45.55
2023-07-24T16:55:30.202Z,46.22
2023-07-24T16:57:58.865Z,45.95
2023-07-24T17:00:26.916Z,46.74
2023-07-24T17:02:54.849Z,46.39
2023-07-24T17:05:23.072Z,47.50
2023-07-24T17:07:50.980Z,48.15
2023-07-24T17:10:19.625Z,48.52
2023-07-24T17:12:47.593Z,49.00
2023-07-24T17:15:15.421Z,49.12
2023-07-24T17:17:44.372Z,49.00
2023-07-24T17:20:12.277Z,49.74
2023-07-24T17:22:40.097Z,49.95
2023-07-24T17:25:08.229Z,50.15
2023-07-24T17:27:38.257Z,50.66
2023-07-24T17:30:06.745Z,50.89
2023-07-24T17:32:34.741Z,51.25
2023-07-24T17:35:02.582Z,51.70
2023-07-24T17:40:05.718Z,52.09
2023-07-24T17:42:33.667Z,51.95
2023-07-24T17:45:01.643Z,52.23
2023-07-24T17:47:29.614Z,52.89
2023-07-24T17:50:06.281Z,53.24
2023-07-24T17:52:37.249Z,53.78
2023-07-24T17:55:06.496Z,53.78
2023-07-24T17:57:34.979Z,53.28
2023-07-24T18:00:04.576Z,53.48
2023-07-24T18:02:33.470Z,54.31
2023-07-24T18:05:02.068Z,54.94
2023-07-24T18:07:29.947Z,55.19
2023-07-24T18:09:58.048Z,55.61
2023-07-24T18:12:27.024Z,55.51
2023-07-24T18:14:54.977Z,55.69
2023-07-24T18:17:23.148Z,55.95
2023-07-24T18:19:51.232Z,56.27
2023-07-24T18:22:22.366Z,56.79
2023-07-24T18:24:50.601Z,57.05
2023-07-24T18:27:18.640Z,57.29
2023-07-24T18:29:46.690Z,57.06
2023-07-24T18:32:14.755Z,57.00
2023-07-24T18:34:42.767Z,57.65
2023-07-24T18:37:10.575Z,57.47
2023-07-24T18:39:38.512Z,57.84
2023-07-24T18:42:06.588Z,57.65
2023-07-24T18:44:36.665Z,57.82
2023-07-24T18:47:04.821Z,57.76
2023-07-24T18:49:32.874Z,58.04
2023-07-24T18:52:00.682Z,58.12
2023-07-24T18:54:28.956Z,58.13
2023-07-24T18:56:57.220Z,58.66
2023-07-24T18:59:25.134Z,59.41
2023-07-24T19:01:53.182Z,59.51
2023-07-24T19:04:21.067Z,59.63
2023-07-24T19:06:49.102Z,59.81
2023-07-24T19:09:17.277Z,59.26
2023-07-24T19:11:45.234Z,59.57
2023-07-24T19:14:13.521Z,59.80
2023-07-24T19:16:41.588Z,59.86
2023-07-24T19:19:09.561Z,60.49
2023-07-24T19:21:37.479Z,60.30
2023-07-24T19:24:05.767Z,60.95
2023-07-24T19:26:33.759Z,61.25
2023-07-24T19:29:01.665Z,61.26
2023-07-24T19:31:29.831Z,61.15
2023-07-24T19:33:58.090Z,61.32
2023-07-24T19:36:26.015Z,61.40
2023-07-24T19:38:54.163Z,61.08
2023-07-24T19:41:22.196Z,60.93
2023-07-24T19:43:49.998Z,61.59
2023-07-24T19:46:18.010Z,62.07
2023-07-24T19:48:46.232Z,62.33
2023-07-24T19:51:14.281Z,62.36
2023-07-24T19:53:42.105Z,62.46
2023-07-24T19:56:10.028Z,62.93
2023-07-24T19:58:38.401Z,63.33
2023-07-24T20:01:07.350Z,63.49
2023-07-24T20:03:35.489Z,63.45
2023-07-24T20:06:07.345Z,63.47
2023-07-24T20:08:36.310Z,63.66
2023-07-24T20:11:08.483Z,64.07
2023-07-24T20:13:39.137Z,64.11
2023-07-24T20:16:07.464Z,64.23
2023-07-24T20:18:35.700Z,64.39
2023-07-24T20:21:03.581Z,64.65
2023-07-24T20:23:31.810Z,64.32
2023-07-24T20:25:59.721Z,64.13
2023-07-24T20:28:28.070Z,64.08
2023-07-24T20:30:56.046Z,64.22
2023-07-24T20:33:24.954Z,64.50
2023-07-24T20:35:53.520Z,64.70
2023-07-24T20:38:26.090Z,64.99
2023-07-24T20:40:54.670Z,65.31
2023-07-24T20:43:22.730Z,65.16
2023-07-24T20:45:54.059Z,65.03
2023-07-24T20:48:23.183Z,65.34
2023-07-24T20:50:51.248Z,65.51
2023-07-24T20:53:19.242Z,65.17
2023-07-24T20:55:47.907Z,65.34
2023-07-24T20:58:15.873Z,65.21
2023-07-24T21:00:43.953Z,65.12
2023-07-24T21:03:12.018Z,65.41
2023-07-24T21:05:39.952Z,65.55
2023-07-24T21:08:07.969Z,65.94
2023-07-24T21:10:36.028Z,66.01
2023-07-24T21:13:03.993Z,65.93
2023-07-24T21:15:31.832Z,66.09
2023-07-24T21:17:59.834Z,66.05
2023-07-24T21:20:27.863Z,66.00
2023-07-24T21:22:56.187Z,65.99
2023-07-24T21:25:24.082Z,65.76
2023-07-24T21:27:52.017Z,65.99
2023-07-24T21:30:22.021Z,65.99
2023-07-24T21:32:50.341Z,66.05
2023-07-24T21:35:19.532Z,66.18
2023-07-24T21:37:47.488Z,66.34
2023-07-24T21:40:15.350Z,66.24
2023-07-24T21:42:43.121Z,66.34
2023-07-24T21:45:11.180Z,66.25
2023-07-24T21:47:39.094Z,66.10
2023-07-24T21:50:07.529Z,66.03
2023-07-24T21:52:35.414Z,66.01
2023-07-24T21:55:03.292Z,65.69
2023-07-24T21:57:31.136Z,65.29
2023-07-24T21:59:59.207Z,65.77
2023-07-24T22:02:27.269Z,66.35
2023-07-24T22:04:55.761Z,66.97
2023-07-24T22:07:23.735Z,67.22
2023-07-24T22:09:51.815Z,67.25
2023-07-24T22:12:19.886Z,67.26
2023-07-24T22:14:47.778Z,67.40
2023-07-24T22:17:15.709Z,67.59
2023-07-24T22:19:43.567Z,67.64
2023-07-24T22:22:11.460Z,67.70
2023-07-24T22:24:40.497Z,67.98
2023-07-24T22:27:08.510Z,68.14
2023-07-24T22:29:36.515Z,68.23
2023-07-24T22:32:04.766Z,68.15
2023-07-24T22:34:32.820Z,68.53
2023-07-24T22:37:00.651Z,68.72
2023-07-24T22:39:28.656Z,68.93
2023-07-24T22:41:56.874Z,68.81
2023-07-24T22:44:24.712Z,68.48
2023-07-24T22:46:52.787Z,68.74
2023-07-24T22:49:23.256Z,69.00
2023-07-24T22:51:51.297Z,69.10
2023-07-24T22:54:19.108Z,69.19
2023-07-24T22:56:47.135Z,69.10
2023-07-24T22:59:18.763Z,69.24
2023-07-24T23:01:47.045Z,69.16
2023-07-24T23:04:15.235Z,69.47
2023-07-24T23:06:43.229Z,69.76
2023-07-24T23:09:11.363Z,70.18
2023-07-24T23:11:39.160Z,70.08
2023-07-24T23:14:07.010Z,70.30
2023-07-24T23:16:35.024Z,70.35
2023-07-24T23:19:03.238Z,70.35
2023-07-24T23:21:31.707Z,70.65
2023-07-24T23:24:00.102Z,70.52
2023-07-24T23:26:28.056Z,70.56
2023-07-24T23:28:58.722Z,70.91
2023-07-24T23:31:26.795Z,70.89
2023-07-24T23:33:54.773Z,70.60
2023-07-24T23:36:22.885Z,70.42
2023-07-24T23:38:50.773Z,70.22
2023-07-24T23:41:18.574Z,70.20
2023-07-24T23:43:46.634Z,70.32
2023-07-24T23:46:15.323Z,70.42
2023-07-24T23:48:43.902Z,70.04
2023-07-24T23:51:19.221Z,69.80
2023-07-24T23:53:47.704Z,69.71
2023-07-24T23:56:15.820Z,69.33
2023-07-24T23:58:44.824Z,69.09
